sensor_id;sensor_type;location;lat;lon;timestamp;P1;durP1;ratioP1;P2;durP2;ratioP2
22764;SDS011;11549;50.852;3.816;2022-09-24T00:02:25;18.33;;;14.82;;
22764;SDS011;11549;50.852;3.816;2022-09-24T00:04:57;18.70;;;14.25;;
22764;SDS011;11549;50.852;3.816;2022-09-24T00:07:28;19.42;;;13.82;;
22764;SDS011;11549;50.852;3.816;2022-09-24T00:09:56;19.63;;;15.20;;
22764;SDS011;11549;50.852;3.816;2022-09-24T00:12:27;18.13;;;14.13;;
22764;SDS011;11549;50.852;3.816;2022-09-24T00:14:56;17.90;;;14.15;;
22764;SDS011;11549;50.852;3.816;2022-09-24T00:17:27;17.65;;;13.65;;
22764;SDS011;11549;50.852;3.816;2022-09-24T00:19:58;18.95;;;13.30;;
22764;SDS011;11549;50.852;3.816;2022-09-24T00:22:26;18.60;;;14.27;;
22764;SDS011;11549;50.852;3.816;2022-09-24T00:24:55;19.45;;;14.30;;
22764;SDS011;11549;50.852;3.816;2022-09-24T00:27:41;16.65;;;13.25;;
22764;SDS011;11549;50.852;3.816;2022-09-24T00:30:09;17.83;;;13.75;;
22764;SDS011;11549;50.852;3.816;2022-09-24T00:32:39;19.30;;;14.70;;
22764;SDS011;11549;50.852;3.816;2022-09-24T00:35:08;19.17;;;14.10;;
22764;SDS011;11549;50.852;3.816;2022-09-24T00:37:36;19.17;;;13.40;;
22764;SDS011;11549;50.852;3.816;2022-09-24T00:40:05;18.90;;;14.70;;
22764;SDS011;11549;50.852;3.816;2022-09-24T00:42:37;21.08;;;14.77;;
22764;SDS011;11549;50.852;3.816;2022-09-24T00:45:07;19.88;;;14.27;;
22764;SDS011;11549;50.852;3.816;2022-09-24T00:47:37;22.40;;;14.85;;
22764;SDS011;11549;50.852;3.816;2022-09-24T00:50:16;22.55;;;14.55;;
22764;SDS011;11549;50.852;3.816;2022-09-24T00:52:47;18.23;;;14.70;;
22764;SDS011;11549;50.852;3.816;2022-09-24T00:57:50;22.05;;;14.73;;
22764;SDS011;11549;50.852;3.816;2022-09-24T01:00:23;19.33;;;14.95;;
22764;SDS011;11549;50.852;3.816;2022-09-24T01:02:55;21.58;;;16.35;;
22764;SDS011;11549;50.852;3.816;2022-09-24T01:05:27;20.63;;;16.13;;
22764;SDS011;11549;50.852;3.816;2022-09-24T01:07:56;23.42;;;16.52;;
22764;SDS011;11549;50.852;3.816;2022-09-24T01:10:27;22.33;;;17.23;;
22764;SDS011;11549;50.852;3.816;2022-09-24T01:13:23;23.52;;;17.58;;
22764;SDS011;11549;50.852;3.816;2022-09-24T01:16:11;24.55;;;18.02;;
22764;SDS011;11549;50.852;3.816;2022-09-24T01:18:48;24.58;;;17.88;;
22764;SDS011;11549;50.852;3.816;2022-09-24T01:21:25;23.33;;;17.52;;
22764;SDS011;11549;50.852;3.816;2022-09-24T01:24:00;25.85;;;17.75;;
22764;SDS011;11549;50.852;3.816;2022-09-24T01:26:47;24.35;;;17.65;;
22764;SDS011;11549;50.852;3.816;2022-09-24T01:29:29;25.08;;;18.17;;
22764;SDS011;11549;50.852;3.816;2022-09-24T01:32:10;26.27;;;18.90;;
22764;SDS011;11549;50.852;3.816;2022-09-24T01:34:46;26.00;;;19.00;;
22764;SDS011;11549;50.852;3.816;2022-09-24T01:37:17;23.15;;;17.48;;
22764;SDS011;11549;50.852;3.816;2022-09-24T01:39:48;22.40;;;17.58;;
22764;SDS011;11549;50.852;3.816;2022-09-24T01:42:20;24.33;;;17.48;;
22764;SDS011;11549;50.852;3.816;2022-09-24T01:44:52;24.00;;;18.70;;
22764;SDS011;11549;50.852;3.816;2022-09-24T01:47:24;25.60;;;18.52;;
22764;SDS011;11549;50.852;3.816;2022-09-24T01:50:00;25.27;;;18.25;;
22764;SDS011;11549;50.852;3.816;2022-09-24T01:52:30;29.90;;;18.90;;
22764;SDS011;11549;50.852;3.816;2022-09-24T01:55:05;24.33;;;17.75;;
22764;SDS011;11549;50.852;3.816;2022-09-24T01:57:37;27.33;;;19.85;;
22764;SDS011;11549;50.852;3.816;2022-09-24T02:00:11;26.65;;;19.58;;
22764;SDS011;11549;50.852;3.816;2022-09-24T02:02:43;28.10;;;19.23;;
22764;SDS011;11549;50.852;3.816;2022-09-24T02:05:17;25.58;;;18.35;;
22764;SDS011;11549;50.852;3.816;2022-09-24T02:07:53;27.25;;;19.77;;
22764;SDS011;11549;50.852;3.816;2022-09-24T02:10:24;25.92;;;19.50;;
22764;SDS011;11549;50.852;3.816;2022-09-24T02:13:00;24.98;;;19.25;;
22764;SDS011;11549;50.852;3.816;2022-09-24T02:15:38;25.40;;;18.83;;
22764;SDS011;11549;50.852;3.816;2022-09-24T02:18:09;26.83;;;19.90;;
22764;SDS011;11549;50.852;3.816;2022-09-24T02:20:41;26.00;;;18.98;;
22764;SDS011;11549;50.852;3.816;2022-09-24T02:23:10;24.70;;;18.30;;
22764;SDS011;11549;50.852;3.816;2022-09-24T02:25:41;26.25;;;19.13;;
22764;SDS011;11549;50.852;3.816;2022-09-24T02:28:16;24.35;;;18.52;;
22764;SDS011;11549;50.852;3.816;2022-09-24T02:30:47;24.98;;;18.30;;
22764;SDS011;11549;50.852;3.816;2022-09-24T02:33:18;23.30;;;17.35;;
22764;SDS011;11549;50.852;3.816;2022-09-24T02:36:06;22.92;;;17.38;;
22764;SDS011;11549;50.852;3.816;2022-09-24T02:38:34;24.20;;;17.52;;
22764;SDS011;11549;50.852;3.816;2022-09-24T02:41:02;23.77;;;17.63;;
22764;SDS011;11549;50.852;3.816;2022-09-24T02:43:33;23.08;;;17.70;;
22764;SDS011;11549;50.852;3.816;2022-09-24T02:46:03;23.25;;;16.98;;
22764;SDS011;11549;50.852;3.816;2022-09-24T02:48:32;24.23;;;17.10;;
22764;SDS011;11549;50.852;3.816;2022-09-24T02:51:00;25.00;;;18.08;;
22764;SDS011;11549;50.852;3.816;2022-09-24T02:53:29;24.30;;;17.55;;
22764;SDS011;11549;50.852;3.816;2022-09-24T02:55:58;25.52;;;18.17;;
22764;SDS011;11549;50.852;3.816;2022-09-24T02:58:27;23.48;;;17.80;;
22764;SDS011;11549;50.852;3.816;2022-09-24T03:00:56;22.73;;;16.75;;
22764;SDS011;11549;50.852;3.816;2022-09-24T03:03:28;21.77;;;17.38;;
22764;SDS011;11549;50.852;3.816;2022-09-24T03:05:57;22.60;;;17.13;;
22764;SDS011;11549;50.852;3.816;2022-09-24T03:08:26;20.65;;;16.13;;
22764;SDS011;11549;50.852;3.816;2022-09-24T03:10:55;23.45;;;17.25;;
22764;SDS011;11549;50.852;3.816;2022-09-24T03:13:24;21.95;;;16.48;;
22764;SDS011;11549;50.852;3.816;2022-09-24T03:15:52;23.02;;;16.67;;
22764;SDS011;11549;50.852;3.816;2022-09-24T03:18:21;22.73;;;17.27;;
22764;SDS011;11549;50.852;3.816;2022-09-24T03:20:54;24.10;;;17.30;;
22764;SDS011;11549;50.852;3.816;2022-09-24T03:25:55;22.40;;;16.58;;
22764;SDS011;11549;50.852;3.816;2022-09-24T03:28:24;21.17;;;16.80;;
22764;SDS011;11549;50.852;3.816;2022-09-24T03:30:53;23.70;;;17.33;;
22764;SDS011;11549;50.852;3.816;2022-09-24T03:35:58;21.60;;;16.45;;
22764;SDS011;11549;50.852;3.816;2022-09-24T03:38:28;23.13;;;17.30;;
22764;SDS011;11549;50.852;3.816;2022-09-24T03:40:57;21.65;;;17.13;;
22764;SDS011;11549;50.852;3.816;2022-09-24T03:43:26;23.00;;;17.27;;
22764;SDS011;11549;50.852;3.816;2022-09-24T03:45:55;23.40;;;17.58;;
22764;SDS011;11549;50.852;3.816;2022-09-24T03:48:24;23.15;;;17.10;;
22764;SDS011;11549;50.852;3.816;2022-09-24T03:50:53;21.63;;;16.58;;
22764;SDS011;11549;50.852;3.816;2022-09-24T03:53:23;22.60;;;17.15;;
22764;SDS011;11549;50.852;3.816;2022-09-24T03:55:52;23.13;;;17.95;;
22764;SDS011;11549;50.852;3.816;2022-09-24T03:58:22;24.38;;;17.65;;
22764;SDS011;11549;50.852;3.816;2022-09-24T04:00:51;23.08;;;18.08;;
22764;SDS011;11549;50.852;3.816;2022-09-24T04:03:20;26.38;;;19.25;;
22764;SDS011;11549;50.852;3.816;2022-09-24T04:05:49;26.40;;;18.60;;
22764;SDS011;11549;50.852;3.816;2022-09-24T04:08:19;26.33;;;19.00;;
22764;SDS011;11549;50.852;3.816;2022-09-24T04:10:50;23.92;;;18.35;;
22764;SDS011;11549;50.852;3.816;2022-09-24T04:13:19;23.45;;;16.65;;
22764;SDS011;11549;50.852;3.816;2022-09-24T04:15:47;23.45;;;17.02;;
22764;SDS011;11549;50.852;3.816;2022-09-24T04:18:17;24.40;;;17.58;;
22764;SDS011;11549;50.852;3.816;2022-09-24T04:20:45;24.63;;;17.83;;
22764;SDS011;11549;50.852;3.816;2022-09-24T04:23:13;26.05;;;19.02;;
22764;SDS011;11549;50.852;3.816;2022-09-24T04:25:42;24.52;;;17.33;;
22764;SDS011;11549;50.852;3.816;2022-09-24T04:28:12;24.83;;;17.70;;
22764;SDS011;11549;50.852;3.816;2022-09-24T04:30:40;23.25;;;17.52;;
22764;SDS011;11549;50.852;3.816;2022-09-24T04:33:08;24.92;;;18.77;;
22764;SDS011;11549;50.852;3.816;2022-09-24T04:35:40;22.95;;;18.40;;
22764;SDS011;11549;50.852;3.816;2022-09-24T04:38:08;25.10;;;18.02;;
22764;SDS011;11549;50.852;3.816;2022-09-24T04:40:39;25.27;;;17.83;;
22764;SDS011;11549;50.852;3.816;2022-09-24T04:43:08;26.67;;;19.23;;
22764;SDS011;11549;50.852;3.816;2022-09-24T04:45:38;24.98;;;18.95;;
22764;SDS011;11549;50.852;3.816;2022-09-24T04:48:14;24.75;;;18.73;;
22764;SDS011;11549;50.852;3.816;2022-09-24T04:50:42;28.63;;;20.17;;
22764;SDS011;11549;50.852;3.816;2022-09-24T04:53:12;26.63;;;19.05;;
22764;SDS011;11549;50.852;3.816;2022-09-24T04:55:40;27.08;;;20.08;;
22764;SDS011;11549;50.852;3.816;2022-09-24T04:58:09;28.00;;;19.80;;
22764;SDS011;11549;50.852;3.816;2022-09-24T05:00:39;29.27;;;21.20;;
22764;SDS011;11549;50.852;3.816;2022-09-24T05:03:08;28.25;;;20.98;;
22764;SDS011;11549;50.852;3.816;2022-09-24T05:05:37;27.98;;;20.88;;
22764;SDS011;11549;50.852;3.816;2022-09-24T05:08:05;30.92;;;21.85;;
22764;SDS011;11549;50.852;3.816;2022-09-24T05:10:33;30.60;;;22.63;;
22764;SDS011;11549;50.852;3.816;2022-09-24T05:13:01;30.98;;;21.30;;
22764;SDS011;11549;50.852;3.816;2022-09-24T05:15:30;33.53;;;23.70;;
22764;SDS011;11549;50.852;3.816;2022-09-24T05:18:00;29.35;;;22.00;;
22764;SDS011;11549;50.852;3.816;2022-09-24T05:20:28;30.27;;;22.58;;
22764;SDS011;11549;50.852;3.816;2022-09-24T05:22:57;34.33;;;24.50;;
22764;SDS011;11549;50.852;3.816;2022-09-24T05:25:25;32.08;;;23.45;;
22764;SDS011;11549;50.852;3.816;2022-09-24T05:27:54;35.00;;;25.13;;
22764;SDS011;11549;50.852;3.816;2022-09-24T05:30:23;32.88;;;23.95;;
22764;SDS011;11549;50.852;3.816;2022-09-24T05:32:52;34.65;;;25.88;;
22764;SDS011;11549;50.852;3.816;2022-09-24T05:35:22;35.80;;;25.80;;
22764;SDS011;11549;50.852;3.816;2022-09-24T05:37:50;36.40;;;25.65;;
22764;SDS011;11549;50.852;3.816;2022-09-24T05:40:19;36.90;;;27.27;;
22764;SDS011;11549;50.852;3.816;2022-09-24T05:43:17;37.92;;;26.65;;
22764;SDS011;11549;50.852;3.816;2022-09-24T05:45:46;38.92;;;27.05;;
22764;SDS011;11549;50.852;3.816;2022-09-24T05:48:15;34.38;;;25.58;;
22764;SDS011;11549;50.852;3.816;2022-09-24T05:50:45;36.33;;;27.48;;
22764;SDS011;11549;50.852;3.816;2022-09-24T05:53:14;39.42;;;27.27;;
22764;SDS011;11549;50.852;3.816;2022-09-24T05:55:43;34.92;;;26.65;;
22764;SDS011;11549;50.852;3.816;2022-09-24T05:58:11;35.40;;;26.52;;
22764;SDS011;11549;50.852;3.816;2022-09-24T06:00:45;34.88;;;25.48;;
22764;SDS011;11549;50.852;3.816;2022-09-24T06:03:15;35.47;;;25.50;;
22764;SDS011;11549;50.852;3.816;2022-09-24T06:05:46;35.40;;;26.05;;
22764;SDS011;11549;50.852;3.816;2022-09-24T06:08:15;35.10;;;26.85;;
22764;SDS011;11549;50.852;3.816;2022-09-24T06:10:45;34.72;;;25.55;;
22764;SDS011;11549;50.852;3.816;2022-09-24T06:13:16;39.40;;;27.20;;
22764;SDS011;11549;50.852;3.816;2022-09-24T06:15:50;34.42;;;25.60;;
22764;SDS011;11549;50.852;3.816;2022-09-24T06:18:20;39.53;;;28.67;;
22764;SDS011;11549;50.852;3.816;2022-09-24T06:20:51;34.10;;;26.35;;
22764;SDS011;11549;50.852;3.816;2022-09-24T06:23:20;37.13;;;27.05;;
22764;SDS011;11549;50.852;3.816;2022-09-24T06:25:48;35.35;;;26.67;;
22764;SDS011;11549;50.852;3.816;2022-09-24T06:28:17;37.40;;;27.13;;
22764;SDS011;11549;50.852;3.816;2022-09-24T06:30:45;35.15;;;25.15;;
22764;SDS011;11549;50.852;3.816;2022-09-24T06:33:14;32.38;;;23.80;;
22764;SDS011;11549;50.852;3.816;2022-09-24T06:35:43;31.85;;;23.70;;
22764;SDS011;11549;50.852;3.816;2022-09-24T06:38:13;32.63;;;23.60;;
22764;SDS011;11549;50.852;3.816;2022-09-24T06:40:43;29.42;;;22.95;;
22764;SDS011;11549;50.852;3.816;2022-09-24T06:43:14;33.55;;;24.75;;
22764;SDS011;11549;50.852;3.816;2022-09-24T06:45:43;33.53;;;23.15;;
22764;SDS011;11549;50.852;3.816;2022-09-24T06:48:12;31.48;;;23.38;;
22764;SDS011;11549;50.852;3.816;2022-09-24T06:50:42;31.48;;;22.77;;
22764;SDS011;11549;50.852;3.816;2022-09-24T06:53:11;29.38;;;21.05;;
22764;SDS011;11549;50.852;3.816;2022-09-24T06:55:41;27.73;;;20.67;;
22764;SDS011;11549;50.852;3.816;2022-09-24T06:58:12;27.50;;;20.88;;
22764;SDS011;11549;50.852;3.816;2022-09-24T07:00:42;25.90;;;19.98;;
22764;SDS011;11549;50.852;3.816;2022-09-24T07:03:18;26.30;;;19.70;;
22764;SDS011;11549;50.852;3.816;2022-09-24T07:05:48;25.08;;;19.20;;
22764;SDS011;11549;50.852;3.816;2022-09-24T07:08:17;30.42;;;21.85;;
22764;SDS011;11549;50.852;3.816;2022-09-24T07:10:46;31.52;;;23.38;;
22764;SDS011;11549;50.852;3.816;2022-09-24T07:13:15;28.08;;;22.63;;
22764;SDS011;11549;50.852;3.816;2022-09-24T07:15:45;28.95;;;23.25;;
22764;SDS011;11549;50.852;3.816;2022-09-24T07:18:15;28.63;;;21.65;;
22764;SDS011;11549;50.852;3.816;2022-09-24T07:20:49;28.40;;;22.23;;
22764;SDS011;11549;50.852;3.816;2022-09-24T07:23:20;31.27;;;23.05;;
22764;SDS011;11549;50.852;3.816;2022-09-24T07:25:49;30.05;;;22.55;;
22764;SDS011;11549;50.852;3.816;2022-09-24T07:28:21;29.27;;;21.67;;
22764;SDS011;11549;50.852;3.816;2022-09-24T07:30:54;28.90;;;22.08;;
22764;SDS011;11549;50.852;3.816;2022-09-24T07:33:24;30.98;;;22.38;;
22764;SDS011;11549;50.852;3.816;2022-09-24T07:35:55;33.00;;;23.52;;
22764;SDS011;11549;50.852;3.816;2022-09-24T07:38:25;34.38;;;25.45;;
22764;SDS011;11549;50.852;3.816;2022-09-24T07:40:55;32.80;;;23.95;;
22764;SDS011;11549;50.852;3.816;2022-09-24T07:43:24;30.58;;;23.00;;
22764;SDS011;11549;50.852;3.816;2022-09-24T07:45:53;29.83;;;21.92;;
22764;SDS011;11549;50.852;3.816;2022-09-24T07:48:23;30.17;;;23.30;;
22764;SDS011;11549;50.852;3.816;2022-09-24T07:50:51;27.00;;;21.05;;
22764;SDS011;11549;50.852;3.816;2022-09-24T07:53:20;27.08;;;20.65;;
22764;SDS011;11549;50.852;3.816;2022-09-24T07:55:50;26.50;;;20.70;;
22764;SDS011;11549;50.852;3.816;2022-09-24T07:58:18;29.40;;;21.00;;
22764;SDS011;11549;50.852;3.816;2022-09-24T08:00:47;23.80;;;19.42;;
22764;SDS011;11549;50.852;3.816;2022-09-24T08:03:16;25.90;;;20.08;;
22764;SDS011;11549;50.852;3.816;2022-09-24T08:05:44;26.45;;;20.55;;
22764;SDS011;11549;50.852;3.816;2022-09-24T08:08:12;27.42;;;19.42;;
22764;SDS011;11549;50.852;3.816;2022-09-24T08:10:41;28.35;;;21.45;;
22764;SDS011;11549;50.852;3.816;2022-09-24T08:13:11;26.98;;;19.30;;
22764;SDS011;11549;50.852;3.816;2022-09-24T08:15:39;25.20;;;20.20;;
22764;SDS011;11549;50.852;3.816;2022-09-24T08:18:08;27.20;;;21.52;;
22764;SDS011;11549;50.852;3.816;2022-09-24T08:20:37;27.90;;;22.05;;
22764;SDS011;11549;50.852;3.816;2022-09-24T08:23:06;30.55;;;23.25;;
22764;SDS011;11549;50.852;3.816;2022-09-24T08:25:36;29.92;;;22.23;;
22764;SDS011;11549;50.852;3.816;2022-09-24T08:28:05;28.90;;;22.65;;
22764;SDS011;11549;50.852;3.816;2022-09-24T08:30:35;29.90;;;23.85;;
22764;SDS011;11549;50.852;3.816;2022-09-24T08:33:04;31.05;;;24.02;;
22764;SDS011;11549;50.852;3.816;2022-09-24T08:35:32;27.63;;;22.52;;
22764;SDS011;11549;50.852;3.816;2022-09-24T08:38:01;29.70;;;23.40;;
22764;SDS011;11549;50.852;3.816;2022-09-24T08:40:30;27.67;;;23.08;;
22764;SDS011;11549;50.852;3.816;2022-09-24T08:43:05;30.55;;;22.55;;
22764;SDS011;11549;50.852;3.816;2022-09-24T08:45:48;27.58;;;22.75;;
22764;SDS011;11549;50.852;3.816;2022-09-24T08:48:38;30.05;;;22.73;;
22764;SDS011;11549;50.852;3.816;2022-09-24T08:51:12;32.75;;;23.83;;
22764;SDS011;11549;50.852;3.816;2022-09-24T08:53:45;28.67;;;22.60;;
22764;SDS011;11549;50.852;3.816;2022-09-24T08:56:18;30.35;;;22.05;;
22764;SDS011;11549;50.852;3.816;2022-09-24T08:58:51;30.50;;;22.58;;
22764;SDS011;11549;50.852;3.816;2022-09-24T09:01:30;26.67;;;20.88;;
22764;SDS011;11549;50.852;3.816;2022-09-24T09:04:03;25.20;;;20.10;;
22764;SDS011;11549;50.852;3.816;2022-09-24T09:06:50;23.88;;;19.40;;
22764;SDS011;11549;50.852;3.816;2022-09-24T09:09:43;25.45;;;20.40;;
22764;SDS011;11549;50.852;3.816;2022-09-24T09:12:16;25.75;;;19.20;;
22764;SDS011;11549;50.852;3.816;2022-09-24T09:14:50;25.40;;;19.97;;
22764;SDS011;11549;50.852;3.816;2022-09-24T09:17:25;26.60;;;20.50;;
22764;SDS011;11549;50.852;3.816;2022-09-24T09:19:59;22.38;;;18.23;;
22764;SDS011;11549;50.852;3.816;2022-09-24T09:22:33;25.23;;;18.60;;
22764;SDS011;11549;50.852;3.816;2022-09-24T09:25:13;26.60;;;19.98;;
22764;SDS011;11549;50.852;3.816;2022-09-24T09:27:45;20.33;;;18.10;;
22764;SDS011;11549;50.852;3.816;2022-09-24T09:30:17;26.67;;;19.50;;
22764;SDS011;11549;50.852;3.816;2022-09-24T09:32:58;21.55;;;19.23;;
22764;SDS011;11549;50.852;3.816;2022-09-24T09:35:35;20.55;;;17.48;;
22764;SDS011;11549;50.852;3.816;2022-09-24T09:38:12;23.65;;;19.83;;
22764;SDS011;11549;50.852;3.816;2022-09-24T09:40:47;27.98;;;21.63;;
22764;SDS011;11549;50.852;3.816;2022-09-24T09:43:23;23.70;;;20.88;;
22764;SDS011;11549;50.852;3.816;2022-09-24T09:45:55;24.15;;;19.70;;
22764;SDS011;11549;50.852;3.816;2022-09-24T09:48:38;25.52;;;20.65;;
22764;SDS011;11549;50.852;3.816;2022-09-24T09:51:13;24.50;;;19.35;;
22764;SDS011;11549;50.852;3.816;2022-09-24T09:53:55;25.83;;;21.27;;
22764;SDS011;11549;50.852;3.816;2022-09-24T09:56:26;23.65;;;20.33;;
22764;SDS011;11549;50.852;3.816;2022-09-24T09:59:05;26.08;;;21.38;;
22764;SDS011;11549;50.852;3.816;2022-09-24T10:01:41;27.58;;;21.98;;
22764;SDS011;11549;50.852;3.816;2022-09-24T10:04:21;27.67;;;21.67;;
22764;SDS011;11549;50.852;3.816;2022-09-24T10:07:05;26.30;;;22.23;;
22764;SDS011;11549;50.852;3.816;2022-09-24T10:09:35;23.45;;;19.50;;
22764;SDS011;11549;50.852;3.816;2022-09-24T10:12:12;21.42;;;19.10;;
22764;SDS011;11549;50.852;3.816;2022-09-24T10:14:43;22.60;;;19.40;;
22764;SDS011;11549;50.852;3.816;2022-09-24T10:17:25;23.80;;;20.35;;
22764;SDS011;11549;50.852;3.816;2022-09-24T10:20:00;24.80;;;20.63;;
22764;SDS011;11549;50.852;3.816;2022-09-24T10:22:34;21.92;;;19.08;;
22764;SDS011;11549;50.852;3.816;2022-09-24T10:25:05;25.13;;;20.92;;
22764;SDS011;11549;50.852;3.816;2022-09-24T10:27:35;22.45;;;19.52;;
22764;SDS011;11549;50.852;3.816;2022-09-24T10:30:10;24.70;;;20.73;;
22764;SDS011;11549;50.852;3.816;2022-09-24T10:32:59;21.98;;;19.38;;
22764;SDS011;11549;50.852;3.816;2022-09-24T10:35:32;23.30;;;20.13;;
22764;SDS011;11549;50.852;3.816;2022-09-24T10:38:13;23.42;;;20.85;;
22764;SDS011;11549;50.852;3.816;2022-09-24T10:40:43;20.58;;;18.38;;
22764;SDS011;11549;50.852;3.816;2022-09-24T10:43:18;24.45;;;19.30;;
22764;SDS011;11549;50.852;3.816;2022-09-24T10:46:03;24.65;;;21.52;;
22764;SDS011;11549;50.852;3.816;2022-09-24T10:48:42;23.52;;;20.80;;
22764;SDS011;11549;50.852;3.816;2022-09-24T10:51:14;25.83;;;21.88;;
22764;SDS011;11549;50.852;3.816;2022-09-24T10:56:29;25.98;;;21.73;;
22764;SDS011;11549;50.852;3.816;2022-09-24T11:05:09;23.55;;;20.65;;
22764;SDS011;11549;50.852;3.816;2022-09-24T11:07:41;28.67;;;24.27;;
22764;SDS011;11549;50.852;3.816;2022-09-24T11:10:22;30.38;;;25.42;;
22764;SDS011;11549;50.852;3.816;2022-09-24T11:13:12;31.05;;;25.27;;
22764;SDS011;11549;50.852;3.816;2022-09-24T11:16:16;19.98;;;15.45;;
22764;SDS011;11549;50.852;3.816;2022-09-24T11:19:12;12.02;;;9.00;;
22764;SDS011;11549;50.852;3.816;2022-09-24T11:21:59;11.85;;;8.80;;
22764;SDS011;11549;50.852;3.816;2022-09-24T11:24:38;10.90;;;8.13;;
22764;SDS011;11549;50.852;3.816;2022-09-24T11:27:34;11.25;;;7.78;;
22764;SDS011;11549;50.852;3.816;2022-09-24T11:30:22;11.10;;;7.18;;
22764;SDS011;11549;50.852;3.816;2022-09-24T11:32:58;9.65;;;7.80;;
22764;SDS011;11549;50.852;3.816;2022-09-24T11:35:41;11.73;;;8.70;;
22764;SDS011;11549;50.852;3.816;2022-09-24T11:38:20;9.52;;;7.50;;
22764;SDS011;11549;50.852;3.816;2022-09-24T11:41:03;8.48;;;6.10;;
22764;SDS011;11549;50.852;3.816;2022-09-24T11:46:35;8.20;;;5.18;;
22764;SDS011;11549;50.852;3.816;2022-09-24T11:49:27;7.35;;;5.03;;
22764;SDS011;11549;50.852;3.816;2022-09-24T11:52:09;9.15;;;5.03;;
22764;SDS011;11549;50.852;3.816;2022-09-24T11:54:42;8.85;;;4.63;;
22764;SDS011;11549;50.852;3.816;2022-09-24T11:57:18;7.78;;;4.60;;
22764;SDS011;11549;50.852;3.816;2022-09-24T11:59:52;7.20;;;4.18;;
22764;SDS011;11549;50.852;3.816;2022-09-24T12:02:25;8.48;;;4.22;;
22764;SDS011;11549;50.852;3.816;2022-09-24T12:05:01;8.02;;;4.38;;
22764;SDS011;11549;50.852;3.816;2022-09-24T12:10:13;11.57;;;4.82;;
22764;SDS011;11549;50.852;3.816;2022-09-24T12:12:53;8.75;;;4.63;;
22764;SDS011;11549;50.852;3.816;2022-09-24T12:15:29;11.48;;;5.03;;
22764;SDS011;11549;50.852;3.816;2022-09-24T12:18:05;10.52;;;5.10;;
22764;SDS011;11549;50.852;3.816;2022-09-24T12:20:41;9.90;;;4.70;;
22764;SDS011;11549;50.852;3.816;2022-09-24T12:23:13;9.82;;;4.95;;
22764;SDS011;11549;50.852;3.816;2022-09-24T12:25:45;12.20;;;5.10;;
22764;SDS011;11549;50.852;3.816;2022-09-24T12:28:17;12.63;;;5.03;;
22764;SDS011;11549;50.852;3.816;2022-09-24T12:31:01;8.57;;;3.70;;
22764;SDS011;11549;50.852;3.816;2022-09-24T12:33:53;13.23;;;3.97;;
22764;SDS011;11549;50.852;3.816;2022-09-24T12:36:31;10.85;;;3.33;;
22764;SDS011;11549;50.852;3.816;2022-09-24T12:39:23;11.02;;;3.20;;
22764;SDS011;11549;50.852;3.816;2022-09-24T12:41:56;11.38;;;3.30;;
22764;SDS011;11549;50.852;3.816;2022-09-24T12:44:29;9.05;;;2.97;;
22764;SDS011;11549;50.852;3.816;2022-09-24T12:47:01;9.20;;;3.13;;
22764;SDS011;11549;50.852;3.816;2022-09-24T12:49:31;9.02;;;3.38;;
22764;SDS011;11549;50.852;3.816;2022-09-24T12:52:03;10.50;;;3.20;;
22764;SDS011;11549;50.852;3.816;2022-09-24T12:54:44;9.27;;;3.20;;
22764;SDS011;11549;50.852;3.816;2022-09-24T12:57:20;10.00;;;3.10;;
22764;SDS011;11549;50.852;3.816;2022-09-24T12:59:52;10.00;;;3.15;;
22764;SDS011;11549;50.852;3.816;2022-09-24T13:02:22;10.18;;;3.25;;
22764;SDS011;11549;50.852;3.816;2022-09-24T13:05:03;10.70;;;3.13;;
22764;SDS011;11549;50.852;3.816;2022-09-24T13:07:55;9.18;;;3.65;;
22764;SDS011;11549;50.852;3.816;2022-09-24T13:10:26;9.13;;;3.17;;
22764;SDS011;11549;50.852;3.816;2022-09-24T13:12:56;10.60;;;3.42;;
22764;SDS011;11549;50.852;3.816;2022-09-24T13:15:32;8.52;;;3.17;;
22764;SDS011;11549;50.852;3.816;2022-09-24T13:18:12;9.63;;;3.80;;
22764;SDS011;11549;50.852;3.816;2022-09-24T13:20:57;10.85;;;3.70;;
22764;SDS011;11549;50.852;3.816;2022-09-24T13:23:41;11.63;;;2.80;;
22764;SDS011;11549;50.852;3.816;2022-09-24T13:26:12;9.75;;;3.10;;
22764;SDS011;11549;50.852;3.816;2022-09-24T13:28:53;10.77;;;3.30;;
22764;SDS011;11549;50.852;3.816;2022-09-24T13:31:26;11.15;;;3.95;;
22764;SDS011;11549;50.852;3.816;2022-09-24T13:34:00;10.40;;;3.20;;
22764;SDS011;11549;50.852;3.816;2022-09-24T13:36:33;11.30;;;3.33;;
22764;SDS011;11549;50.852;3.816;2022-09-24T13:39:08;10.63;;;4.13;;
22764;SDS011;11549;50.852;3.816;2022-09-24T13:41:44;13.23;;;3.80;;
22764;SDS011;11549;50.852;3.816;2022-09-24T13:44:19;9.52;;;3.20;;
22764;SDS011;11549;50.852;3.816;2022-09-24T13:46:54;9.50;;;3.25;;
22764;SDS011;11549;50.852;3.816;2022-09-24T13:49:26;10.82;;;2.80;;
22764;SDS011;11549;50.852;3.816;2022-09-24T13:51:59;8.60;;;2.72;;
22764;SDS011;11549;50.852;3.816;2022-09-24T13:54:39;6.85;;;2.60;;
22764;SDS011;11549;50.852;3.816;2022-09-24T13:57:18;8.75;;;2.72;;
22764;SDS011;11549;50.852;3.816;2022-09-24T14:00:00;11.90;;;2.97;;
22764;SDS011;11549;50.852;3.816;2022-09-24T14:02:42;10.25;;;2.40;;
22764;SDS011;11549;50.852;3.816;2022-09-24T14:05:21;11.18;;;2.75;;
22764;SDS011;11549;50.852;3.816;2022-09-24T14:07:56;11.68;;;3.15;;
22764;SDS011;11549;50.852;3.816;2022-09-24T14:10:32;8.73;;;2.78;;
22764;SDS011;11549;50.852;3.816;2022-09-24T14:13:02;9.20;;;2.72;;
22764;SDS011;11549;50.852;3.816;2022-09-24T14:15:48;10.20;;;3.20;;
22764;SDS011;11549;50.852;3.816;2022-09-24T14:18:18;9.20;;;3.08;;
22764;SDS011;11549;50.852;3.816;2022-09-24T14:20:47;10.98;;;2.97;;
22764;SDS011;11549;50.852;3.816;2022-09-24T14:23:20;8.60;;;3.10;;
22764;SDS011;11549;50.852;3.816;2022-09-24T14:28:24;11.45;;;2.70;;
22764;SDS011;11549;50.852;3.816;2022-09-24T14:30:55;13.57;;;3.50;;
22764;SDS011;11549;50.852;3.816;2022-09-24T14:33:24;11.65;;;3.15;;
22764;SDS011;11549;50.852;3.816;2022-09-24T14:35:55;10.32;;;3.05;;
22764;SDS011;11549;50.852;3.816;2022-09-24T14:38:25;9.95;;;3.10;;
22764;SDS011;11549;50.852;3.816;2022-09-24T14:41:00;10.15;;;4.53;;
22764;SDS011;11549;50.852;3.816;2022-09-24T14:43:32;8.77;;;3.25;;
22764;SDS011;11549;50.852;3.816;2022-09-24T14:46:06;11.43;;;3.05;;
22764;SDS011;11549;50.852;3.816;2022-09-24T14:48:41;7.43;;;2.38;;
22764;SDS011;11549;50.852;3.816;2022-09-24T14:51:20;7.30;;;2.65;;
22764;SDS011;11549;50.852;3.816;2022-09-24T14:53:58;6.60;;;2.33;;
22764;SDS011;11549;50.852;3.816;2022-09-24T14:56:30;11.60;;;2.88;;
22764;SDS011;11549;50.852;3.816;2022-09-24T14:59:00;9.10;;;2.92;;
22764;SDS011;11549;50.852;3.816;2022-09-24T15:01:39;8.60;;;2.53;;
22764;SDS011;11549;50.852;3.816;2022-09-24T15:04:14;8.07;;;2.70;;
22764;SDS011;11549;50.852;3.816;2022-09-24T15:06:46;5.78;;;2.40;;
22764;SDS011;11549;50.852;3.816;2022-09-24T15:09:18;7.28;;;1.90;;
22764;SDS011;11549;50.852;3.816;2022-09-24T15:11:53;10.93;;;2.65;;
22764;SDS011;11549;50.852;3.816;2022-09-24T15:14:29;9.38;;;2.38;;
22764;SDS011;11549;50.852;3.816;2022-09-24T15:17:07;5.13;;;1.70;;
22764;SDS011;11549;50.852;3.816;2022-09-24T15:19:39;7.63;;;2.10;;
22764;SDS011;11549;50.852;3.816;2022-09-24T15:22:09;5.82;;;1.80;;
22764;SDS011;11549;50.852;3.816;2022-09-24T15:24:38;7.63;;;1.60;;
22764;SDS011;11549;50.852;3.816;2022-09-24T15:27:15;8.35;;;1.52;;